Time;durP1;ratioP1;P1;durP2;ratioP2;P2;SDS_P1;SDS_P2;PMS_P1;PMS_P2;Temp;Humidity;BMP_temperature;BMP_pressure;BME280_temperature;BME280_humidity;BME280_pressure;Samples;Min_cycle;Max_cycle;Signal;HPM_P1;HPM_P2
2022/07/20 00:02:16;;;;;;;9.50;2.65;;;;;;;24.48;34.79;100067.84;10309087;28;20050;-74
2022/07/20 00:07:18;;;;;;;7.00;2.50;;;;;;;24.40;34.82;100046.00;10338227;28;20038;-74
2022/07/20 00:12:20;;;;;;;5.82;2.30;;;;;;;24.34;34.85;100025.78;10313450;28;20113;-74
2022/07/20 00:17:21;;;;;;;6.32;2.40;;;;;;;24.23;35.10;99990.69;10307796;28;20150;-72
2022/07/20 00:22:23;;;;;;;7.18;2.40;;;;;;;24.13;35.05;99969.78;10305834;28;20117;-74
2022/07/20 00:27:24;;;;;;;7.88;2.47;;;;;;;23.99;35.26;99924.19;10312133;28;20042;-74
2022/07/20 00:32:26;;;;;;;9.05;2.75;;;;;;;23.87;35.15;99892.72;10312217;28;20054;-74
2022/07/20 00:37:27;;;;;;;10.40;3.28;;;;;;;23.70;35.27;99838.31;10312939;28;20042;-73
2022/07/20 00:42:29;;;;;;;9.80;3.45;;;;;;;23.50;35.50;99771.72;10312313;28;20070;-74
2022/07/20 00:47:31;;;;;;;6.60;2.80;;;;;;;23.33;35.64;99717.41;10307080;28;20043;-74
2022/07/20 00:52:32;;;;;;;10.05;2.75;;;;;;;23.19;35.73;99679.88;10312406;28;20082;-74
2022/07/20 00:57:34;;;;;;;7.35;2.60;;;;;;;23.06;36.01;99643.09;10311796;28;20053;-74
2022/07/20 01:02:36;;;;;;;6.13;2.67;;;;;;;22.97;36.10;99618.69;10311556;28;20049;-73
2022/07/20 01:07:37;;;;;;;5.13;2.35;;;;;;;22.87;36.02;99594.31;10311074;28;20122;-74
2022/07/20 01:12:45;;;;;;;7.38;2.65;;;;;;;22.84;36.17;99586.47;10378281;28;20042;-74
2022/07/20 01:17:46;;;;;;;6.95;2.45;;;;;;;22.75;36.25;99569.97;10303546;28;20422;-74
2022/07/20 01:22:48;;;;;;;7.57;2.55;;;;;;;22.71;36.64;99563.13;10301958;28;20034;-74
2022/07/20 01:27:50;;;;;;;7.05;2.33;;;;;;;22.65;36.70;99550.06;10310044;28;20080;-74
2022/07/20 01:32:51;;;;;;;11.15;2.60;;;;;;;22.63;36.84;99554.63;10317819;28;20073;-74
2022/07/20 01:37:53;;;;;;;8.18;2.85;;;;;;;22.59;36.86;99545.94;10371249;28;20127;-73
2022/07/20 01:42:54;;;;;;;7.32;2.65;;;;;;;22.57;37.02;99555.81;10376563;28;20068;-74
2022/07/20 01:47:56;;;;;;;8.82;2.90;;;;;;;22.49;37.06;99526.03;10314618;28;20042;-74
2022/07/20 01:52:58;;;;;;;7.30;2.50;;;;;;;22.42;37.23;99520.13;10341046;28;20613;-73
2022/07/20 01:57:59;;;;;;;6.78;2.90;;;;;;;22.38;37.45;99505.25;10376646;28;20046;-73
2022/07/20 02:03:02;;;;;;;7.22;2.67;;;;;;;22.40;37.36;99522.03;10309994;28;20457;-75
2022/07/20 02:08:04;;;;;;;10.30;2.70;;;;;;;22.34;37.49;99509.00;10316327;28;20073;-74
2022/07/20 02:13:06;;;;;;;9.13;2.33;;;;;;;22.27;37.85;99496.06;10315100;28;20562;-74
2022/07/20 02:18:10;;;;;;;8.55;2.72;;;;;;;22.17;37.96;99466.31;10313866;28;20109;-74
2022/07/20 02:23:12;;;;;;;10.30;2.80;;;;;;;22.09;37.85;99444.56;10314979;28;20129;-74
2022/07/20 02:28:13;;;;;;;4.85;2.53;;;;;;;21.92;38.01;99393.00;10316088;28;20038;-74
2022/07/20 02:33:15;;;;;;;7.32;2.67;;;;;;;21.79;38.16;99351.94;10306777;28;20130;-74
2022/07/20 02:38:16;;;;;;;5.47;2.55;;;;;;;21.61;38.15;99301.34;10303268;28;20518;-74
2022/07/20 02:43:19;;;;;;;8.32;3.00;;;;;;;21.44;38.50;99246.28;10314309;28;20050;-74
2022/07/20 02:48:20;;;;;;;8.48;2.45;;;;;;;21.30;38.50;99201.75;10377608;28;20051;-74
2022/07/20 02:53:22;;;;;;;10.20;3.50;;;;;;;21.13;38.94;99148.53;10375807;28;20283;-74
2022/07/20 02:58:23;;;;;;;7.78;2.70;;;;;;;20.96;39.12;99099.72;10309686;28;20142;-73
2022/07/20 03:03:25;;;;;;;5.57;2.42;;;;;;;20.84;39.20;99073.78;10378411;28;20487;-73
2022/07/20 03:08:27;;;;;;;5.80;2.70;;;;;;;20.63;39.42;98995.94;10311993;28;20058;-74
2022/07/20 03:13:29;;;;;;;7.05;2.83;;;;;;;20.44;39.78;98935.75;10308863;28;20056;-74
2022/07/20 03:18:30;;;;;;;5.60;2.58;;;;;;;20.29;39.62;98905.53;10377271;28;20042;-73
2022/07/20 03:23:32;;;;;;;7.65;2.60;;;;;;;20.21;39.98;98890.97;10307562;28;20042;-73
2022/07/20 03:28:33;;;;;;;8.63;3.28;;;;;;;20.11;39.98;98864.00;10311349;28;20422;-74
2022/07/20 03:33:35;;;;;;;4.97;2.17;;;;;;;20.02;40.34;98835.28;10312541;28;20074;-74
2022/07/20 03:38:36;;;;;;;10.23;2.80;;;;;;;19.90;40.37;98803.09;10302062;28;20042;-74
2022/07/20 03:43:44;;;;;;;6.28;2.63;;;;;;;19.81;40.71;98787.66;10304465;28;20521;-74
2022/07/20 03:48:46;;;;;;;7.30;2.60;;;;;;;19.80;41.21;98790.38;10311399;28;20056;-74
2022/07/20 03:53:48;;;;;;;10.88;2.55;;;;;;;19.81;41.18;98806.25;10302084;28;20057;-74
2022/07/20 03:58:50;;;;;;;10.80;2.97;;;;;;;19.80;41.59;98817.78;10379942;28;20523;-74
2022/07/20 04:03:52;;;;;;;7.82;2.90;;;;;;;19.75;41.59;98815.34;10306087;28;20065;-74
2022/07/20 04:08:54;;;;;;;5.32;2.58;;;;;;;19.70;42.27;98806.78;10353062;28;20042;-74
2022/07/20 04:13:56;;;;;;;7.50;2.55;;;;;;;19.80;42.22;98848.81;10377208;28;20422;-74
2022/07/20 04:18:57;;;;;;;8.68;2.53;;;;;;;19.83;42.39;98878.72;10379032;28;20438;-74
2022/07/20 04:23:59;;;;;;;7.32;2.42;;;;;;;19.87;42.70;98904.19;10306785;28;20137;-74
2022/07/20 04:29:00;;;;;;;7.90;3.00;;;;;;;19.98;42.67;98951.44;10311555;28;20044;-74
2022/07/20 04:34:02;;;;;;;7.43;2.83;;;;;;;20.19;43.00;99045.16;10308901;28;20077;-73
2022/07/20 04:39:03;;;;;;;7.78;2.40;;;;;;;20.40;43.29;99136.25;10310566;28;20037;-74
2022/07/20 04:44:05;;;;;;;5.00;2.47;;;;;;;20.57;43.10;99204.50;10306358;28;20642;-74
2022/07/20 04:49:10;;;;;;;13.30;3.10;;;;;;;20.78;43.52;99292.19;10329961;28;20042;-73
2022/07/20 04:54:11;;;;;;;8.32;2.67;;;;;;;21.05;43.65;99403.50;10373611;28;20469;-74
2022/07/20 04:59:13;;;;;;;6.40;2.75;;;;;;;21.19;43.58;99464.94;10333254;28;20524;-74
2022/07/20 05:04:15;;;;;;;9.73;2.80;;;;;;;21.39;43.77;99545.66;10310179;28;20160;-74
2022/07/20 05:09:17;;;;;;;7.72;2.75;;;;;;;21.56;43.79;99616.75;10306847;28;20046;-74
2022/07/20 05:14:18;;;;;;;6.40;2.55;;;;;;;21.81;43.72;99712.38;10309873;28;20137;-74
2022/07/20 05:19:20;;;;;;;10.65;2.80;;;;;;;22.03;44.07;99801.06;10302376;28;20138;-74
2022/07/20 05:24:23;;;;;;;5.53;2.47;;;;;;;22.17;44.02;99863.53;10314036;28;20034;-74
2022/07/20 05:29:24;;;;;;;5.90;2.55;;;;;;;22.40;44.20;99956.72;10315002;28;20137;-74
2022/07/20 05:34:26;;;;;;;7.20;2.50;;;;;;;22.71;44.21;100083.41;10311061;28;20783;-74
2022/07/20 05:39:27;;;;;;;6.05;2.58;;;;;;;23.22;44.38;100285.91;10317207;28;20129;-74
2022/07/20 05:44:29;;;;;;;8.13;2.78;;;;;;;23.83;44.21;100517.53;10336747;28;20050;-74
2022/07/20 05:49:31;;;;;;;12.88;2.80;;;;;;;24.16;44.15;100648.97;10329793;28;20150;-74
2022/07/20 05:54:32;;;;;;;6.85;2.75;;;;;;;24.38;44.10;100724.78;10315308;28;20130;-73
2022/07/20 05:59:34;;;;;;;4.80;2.38;;;;;;;24.57;44.17;100799.84;10307475;28;20502;-74
2022/07/20 06:04:37;;;;;;;9.23;2.33;;;;;;;24.76;44.13;100865.13;10326458;28;20058;-75
2022/07/20 06:09:39;;;;;;;7.07;2.80;;;;;;;24.99;43.79;100955.22;10309327;28;20047;-74
2022/07/20 06:14:41;;;;;;;8.70;2.78;;;;;;;25.26;43.72;101045.28;10311095;28;20543;-75
2022/07/20 06:19:42;;;;;;;10.40;2.70;;;;;;;25.53;43.88;101159.44;10310683;28;20054;-77
2022/07/20 06:24:44;;;;;;;7.07;2.22;;;;;;;25.83;43.67;101266.44;10317096;28;20568;-75
2022/07/20 06:29:59;;;;;;;5.97;2.10;;;;;;;26.27;43.50;101435.59;10364328;28;20807;-75
2022/07/20 06:35:01;;;;;;;9.32;2.33;;;;;;;26.83;43.36;101645.69;10310013;28;20089;-76
2022/07/20 06:40:03;;;;;;;6.93;2.72;;;;;;;27.45;43.04;101874.59;10302897;28;20133;-76
2022/07/20 06:45:05;;;;;;;10.15;2.22;;;;;;;27.92;43.16;102044.16;10306576;28;20677;-76
2022/07/20 06:50:07;;;;;;;5.78;2.45;;;;;;;28.45;42.58;102230.81;10308335;28;20750;-76
2022/07/20 06:55:09;;;;;;;7.63;2.45;;;;;;;29.01;42.64;102435.50;10314625;28;20104;-76
2022/07/20 07:00:12;;;;;;;7.40;3.10;;;;;;;29.48;42.39;102595.78;10305994;28;20149;-75
2022/07/20 07:05:18;;;;;;;12.17;2.60;;;;;;;29.92;42.04;102736.47;10314327;28;20392;-74
2022/07/20 07:10:20;;;;;;;7.85;2.30;;;;;;;30.36;41.52;102893.47;10374047;28;20423;-75
2022/07/20 07:15:22;;;;;;;9.10;2.53;;;;;;;30.99;41.32;103120.41;10376290;28;20058;-76
2022/07/20 07:20:26;;;;;;;8.23;2.47;;;;;;;31.47;40.73;103263.16;10344589;28;20043;-75
2022/07/20 07:25:28;;;;;;;8.52;2.97;;;;;;;32.08;40.25;103471.59;10302711;28;20037;-75
2022/07/20 07:30:30;;;;;;;9.15;2.88;;;;;;;32.37;39.91;103540.25;10328532;28;20056;-76
2022/07/20 07:35:32;;;;;;;10.55;2.33;;;;;;;32.63;39.56;103600.00;10304673;28;20423;-76
2022/07/20 07:40:34;;;;;;;7.03;2.33;;;;;;;33.12;39.02;103758.53;10304036;28;20474;-76
2022/07/20 07:45:35;;;;;;;5.65;2.28;;;;;;;33.42;38.44;103823.66;10310251;28;20533;-75
2022/07/20 07:50:38;;;;;;;8.25;2.45;;;;;;;33.77;38.32;103916.75;10334586;28;20112;-75
2022/07/20 07:55:41;;;;;;;10.45;2.63;;;;;;;34.12;37.52;104009.81;10306959;28;20049;-76
2022/07/20 08:00:42;;;;;;;11.07;2.30;;;;;;;34.61;36.99;104149.69;10311262;28;20050;-75
2022/07/20 08:05:44;;;;;;;8.60;2.85;;;;;;;34.72;36.89;104143.00;10324718;28;20043;-75
2022/07/20 08:10:45;;;;;;;8.63;2.60;;;;;;;34.84;36.10;104137.16;10299881;28;20552;-75
2022/07/20 08:15:47;;;;;;;7.10;2.58;;;;;;;35.21;36.12;104234.81;10305577;28;20510;-75
2022/07/20 08:20:52;;;;;;;7.28;2.60;;;;;;;35.53;35.08;104310.97;10316929;28;20455;-75
2022/07/20 08:25:54;;;;;;;9.05;2.53;;;;;;;35.96;35.19;104426.75;10301752;28;20129;-74
2022/07/20 08:30:55;;;;;;;9.02;2.63;;;;;;;36.16;34.41;104447.84;10303397;28;20056;-75
2022/07/20 08:35:57;;;;;;;9.85;2.65;;;;;;;36.74;34.10;104618.72;10331757;28;20050;-75
2022/07/20 08:40:58;;;;;;;13.52;2.88;;;;;;;36.52;33.53;104465.72;10318915;28;20042;-75
2022/07/20 08:46:02;;;;;;;7.38;2.60;;;;;;;36.55;32.90;104419.22;10302607;28;20125;-75
2022/07/20 08:51:03;;;;;;;10.98;2.80;;;;;;;36.62;32.22;104402.56;10331751;28;20062;-74
2022/07/20 08:56:05;;;;;;;8.80;2.60;;;;;;;37.10;32.25;104542.78;10376447;28;20560;-75
2022/07/20 09:01:12;;;;;;;10.10;3.65;;;;;;;37.64;31.86;104704.75;10303474;28;20049;-75
2022/07/20 09:06:14;;;;;;;8.75;2.67;;;;;;;37.45;31.41;104561.53;10377801;28;20049;-75
2022/07/20 09:11:17;;;;;;;9.13;2.75;;;;;;;37.61;31.06;104572.72;10311508;28;20118;-75
2022/07/20 09:16:48;;;;;;;9.70;2.60;;;;;;;37.57;30.85;104505.47;10372538;28;20095;-75
2022/07/20 09:21:51;;;;;;;10.45;2.90;;;;;;;37.19;30.35;104303.88;10394826;28;20050;-75
2022/07/20 09:27:03;;;;;;;7.30;2.95;;;;;;;37.28;30.06;104311.69;10301875;28;20042;-76
2022/07/20 09:32:05;;;;;;;16.93;3.73;;;;;;;37.43;29.94;104334.75;10332547;28;20037;-76
2022/07/20 09:37:16;;;;;;;5.78;2.53;;;;;;;37.67;29.33;104390.22;10308443;28;20582;-75
2022/07/20 09:42:35;;;;;;;8.40;3.03;;;;;;;37.29;29.51;104197.81;10306603;28;20042;-73
2022/07/20 09:47:36;;;;;;;9.90;3.10;;;;;;;37.42;28.99;104223.66;10375468;28;20062;-73
2022/07/20 09:52:38;;;;;;;10.57;3.40;;;;;;;37.72;28.58;104297.09;10326589;28;20046;-72
2022/07/20 09:57:40;;;;;;;12.52;3.30;;;;;;;37.43;28.46;104159.84;10304043;28;20043;-73
2022/07/20 10:02:43;;;;;;;8.95;2.95;;;;;;;37.81;28.36;104276.66;10356311;28;20046;-73
2022/07/20 10:07:46;;;;;;;9.82;3.20;;;;;;;38.33;28.32;104426.59;10306399;28;20043;-73
2022/07/20 10:12:47;;;;;;;8.23;3.40;;;;;;;38.13;27.89;104313.44;10381249;28;20525;-73
2022/07/20 10:17:55;;;;;;;10.45;3.17;;;;;;;38.03;27.79;104257.41;10308658;28;20049;-73
2022/07/20 10:23:15;;;;;;;11.35;3.15;;;;;;;37.93;27.76;104194.03;10363067;28;20050;-74
2022/07/20 10:28:32;;;;;;;10.85;3.45;;;;;;;38.17;27.58;104256.78;10366357;28;20142;-74
2022/07/20 10:33:35;;;;;;;9.18;3.28;;;;;;;38.09;27.39;104185.09;10318812;28;20144;-74
2022/07/20 10:38:37;;;;;;;10.82;3.20;;;;;;;38.42;27.47;104291.19;10318522;28;20619;-74
2022/07/20 10:43:38;;;;;;;9.57;3.22;;;;;;;38.12;26.99;104136.63;10312564;28;20129;-74
2022/07/20 10:48:47;;;;;;;10.55;3.75;;;;;;;38.17;26.90;104147.34;10314003;28;20045;-75
2022/07/20 10:53:49;;;;;;;7.13;3.15;;;;;;;38.10;26.85;104093.88;10318665;28;20120;-74
2022/07/20 10:58:58;;;;;;;14.57;3.47;;;;;;;38.00;26.90;104036.03;10315745;28;20039;-74
2022/07/20 11:04:00;;;;;;;6.85;3.10;;;;;;;38.32;26.80;104143.00;10301603;28;20422;-75
2022/07/20 11:09:02;;;;;;;8.95;3.17;;;;;;;37.92;26.46;103967.13;10310991;28;20046;-76
2022/07/20 11:14:06;;;;;;;10.02;3.67;;;;;;;37.82;26.59;103910.19;10319335;28;20053;-76
2022/07/20 11:19:08;;;;;;;12.48;4.13;;;;;;;37.43;26.68;103760.91;10374955;28;20092;-76
2022/07/20 11:24:24;;;;;;;13.13;4.45;;;;;;;37.28;26.54;103690.66;10368710;28;20419;-76
2022/07/20 11:29:27;;;;;;;9.10;4.10;;;;;;;37.18;26.97;103656.56;10302625;28;20050;-76
2022/07/20 11:34:29;;;;;;;12.45;4.70;;;;;;;37.58;26.80;103800.22;10367449;28;20100;-76
2022/07/20 11:39:30;;;;;;;8.38;4.40;;;;;;;37.62;27.21;103807.31;10333473;28;20066;-76
2022/07/20 11:44:32;;;;;;;12.55;5.22;;;;;;;37.35;26.97;103708.47;10305572;28;20041;-77
2022/07/20 11:49:34;;;;;;;11.43;5.55;;;;;;;36.83;27.31;103509.09;10311637;28;20474;-76
2022/07/20 11:54:39;;;;;;;11.85;5.03;;;;;;;36.65;27.69;103459.03;10374533;28;20049;-76
2022/07/20 11:59:45;;;;;;;13.82;5.63;;;;;;;36.61;28.14;103452.88;10336048;28;20037;-76
2022/07/20 12:04:47;;;;;;;16.05;5.82;;;;;;;36.39;27.83;103374.91;10378874;28;20062;-75
2022/07/20 12:09:49;;;;;;;14.30;6.05;;;;;;;36.35;28.20;103376.00;10312049;28;20514;-76
2022/07/20 12:14:50;;;;;;;14.80;6.07;;;;;;;36.18;28.51;103307.78;10323448;28;20054;-75
2022/07/20 12:19:57;;;;;;;12.20;6.33;;;;;;;36.18;28.93;103326.88;10308841;28;20149;-76
2022/07/20 12:25:02;;;;;;;16.52;6.53;;;;;;;36.03;29.39;103272.22;10318389;28;20050;-75
2022/07/20 12:30:23;;;;;;;15.02;6.43;;;;;;;36.33;29.56;103410.66;10320067;28;20098;-76
2022/07/20 12:35:26;;;;;;;15.88;7.40;;;;;;;36.17;29.53;103346.97;10367210;28;20061;-76
2022/07/20 12:40:31;;;;;;;14.80;7.28;;;;;;;36.31;29.85;103403.53;10312182;28;20485;-76
2022/07/20 12:45:33;;;;;;;15.13;6.90;;;;;;;36.16;30.48;103358.81;10310893;28;20046;-76
2022/07/20 12:50:35;;;;;;;15.13;7.20;;;;;;;36.33;30.35;103442.50;10324500;28;20054;-76
2022/07/20 12:55:37;;;;;;;15.77;7.50;;;;;;;36.39;30.76;103464.91;10310548;28;20527;-76
2022/07/20 13:00:38;;;;;;;18.17;7.50;;;;;;;36.49;30.97;103508.09;10309817;28;20126;-76
2022/07/20 13:05:40;;;;;;;16.00;7.88;;;;;;;36.32;31.28;103444.38;10309205;28;20043;-76
2022/07/20 13:10:42;;;;;;;17.13;8.43;;;;;;;36.03;31.76;103339.47;10311146;28;20123;-76
2022/07/20 13:15:44;;;;;;;19.35;8.05;;;;;;;36.30;31.76;103456.31;10378061;28;20046;-76
2022/07/20 13:20:46;;;;;;;18.83;9.07;;;;;;;35.99;32.38;103341.50;10371686;28;20100;-76
2022/07/20 13:25:48;;;;;;;18.92;9.50;;;;;;;36.05;32.51;103375.75;10298255;28;20043;-76
2022/07/20 13:30:51;;;;;;;17.00;10.45;;;;;;;35.97;32.50;103357.00;10311133;28;20677;-75
2022/07/20 13:35:52;;;;;;;17.90;10.32;;;;;;;35.72;33.13;103271.03;10377250;28;20064;-76
2022/07/20 13:40:55;;;;;;;23.35;11.60;;;;;;;35.30;33.24;103108.00;10302630;28;20078;-76
2022/07/20 13:45:57;;;;;;;21.52;11.55;;;;;;;35.29;33.54;103114.38;10315750;28;20125;-76
2022/07/20 13:50:58;;;;;;;22.45;11.35;;;;;;;35.25;33.64;103113.63;10312564;28;20140;-76
2022/07/20 13:56:20;;;;;;;23.58;11.23;;;;;;;35.32;33.70;103150.50;10311966;28;20801;-76
2022/07/20 14:01:21;;;;;;;20.88;10.93;;;;;;;35.33;33.85;103165.03;10303752;28;20130;-76
2022/07/20 14:06:23;;;;;;;20.08;10.60;;;;;;;35.14;34.24;103083.34;10317154;28;20043;-75
2022/07/20 14:11:25;;;;;;;21.98;11.68;;;;;;;34.89;34.37;102997.53;10307907;28;20050;-76
2022/07/20 14:16:31;;;;;;;19.50;11.10;;;;;;;34.91;34.51;103011.94;10302654;28;20040;-76
2022/07/20 14:21:33;;;;;;;16.25;11.13;;;;;;;34.96;35.04;103045.22;10305580;28;20066;-76
2022/07/20 14:26:36;;;;;;;19.85;11.57;;;;;;;34.88;35.26;103006.66;10313784;28;20046;-77
2022/07/20 14:31:38;;;;;;;17.23;10.93;;;;;;;34.68;35.16;102945.97;10318311;28;20038;-76
2022/07/20 14:36:39;;;;;;;18.27;11.25;;;;;;;34.54;35.36;102902.25;10330032;28;20044;-76
2022/07/20 14:41:41;;;;;;;19.50;11.30;;;;;;;34.57;35.75;102914.81;10307069;28;20128;-76
2022/07/20 14:46:43;;;;;;;22.30;11.50;;;;;;;34.55;35.97;102917.63;10367598;28;20149;-76
2022/07/20 14:51:44;;;;;;;16.98;10.23;;;;;;;34.83;35.96;103022.31;10375545;28;20616;-76
2022/07/20 14:56:46;;;;;;;19.73;11.25;;;;;;;34.79;35.68;103010.72;10381695;28;20042;-76
2022/07/20 15:01:48;;;;;;;18.50;9.95;;;;;;;34.58;35.71;102920.19;10310910;28;20423;-76
2022/07/20 15:06:49;;;;;;;21.48;10.35;;;;;;;34.63;36.20;102942.56;10310934;28;20553;-75
2022/07/20 15:11:51;;;;;;;15.63;9.35;;;;;;;34.48;35.91;102883.53;10307401;28;20046;-76
2022/07/20 15:16:53;;;;;;;18.70;9.70;;;;;;;34.47;35.92;102877.22;10381467;28;20526;-76
2022/07/20 15:21:54;;;;;;;17.77;9.38;;;;;;;34.32;36.29;102813.66;10394218;28;20054;-76
2022/07/20 15:26:56;;;;;;;15.38;8.60;;;;;;;34.38;35.96;102831.50;10376989;28;20039;-76
2022/07/20 15:31:58;;;;;;;12.88;8.18;;;;;;;34.19;35.96;102758.13;10308709;28;20121;-76
2022/07/20 15:37:17;;;;;;;16.65;8.82;;;;;;;34.25;35.96;102779.59;10370591;28;20034;-75
2022/07/20 15:42:20;;;;;;;15.90;8.55;;;;;;;34.34;35.93;102806.28;10379198;28;20046;-76
2022/07/20 15:47:22;;;;;;;16.73;8.07;;;;;;;34.11;36.00;102706.00;10314795;28;20181;-76
2022/07/20 15:52:23;;;;;;;13.38;7.82;;;;;;;34.28;36.10;102767.69;10307620;28;20065;-76
2022/07/20 15:57:26;;;;;;;16.23;7.68;;;;;;;34.48;35.99;102834.59;10323108;28;20087;-77
2022/07/20 16:02:28;;;;;;;16.70;7.57;;;;;;;34.30;35.96;102761.19;10305989;28;20046;-76
2022/07/20 16:07:31;;;;;;;11.57;7.05;;;;;;;34.42;35.47;102802.28;10301519;28;20407;-76
2022/07/20 16:12:32;;;;;;;12.65;7.40;;;;;;;34.48;35.68;102818.28;10307640;28;20039;-76
2022/07/20 16:17:35;;;;;;;13.02;7.38;;;;;;;34.11;35.33;102662.50;10312582;28;20117;-74
2022/07/20 16:22:38;;;;;;;15.65;7.68;;;;;;;34.12;35.83;102661.56;10385174;28;20035;-74
2022/07/20 16:27:39;;;;;;;12.98;7.55;;;;;;;34.06;35.59;102637.44;10308720;28;20502;-74
2022/07/20 16:32:41;;;;;;;14.18;6.80;;;;;;;34.08;35.70;102640.94;10312740;28;20526;-74
2022/07/20 16:37:43;;;;;;;13.05;6.88;;;;;;;33.93;35.25;102580.13;10313304;28;20043;-74
2022/07/20 16:42:44;;;;;;;12.57;6.45;;;;;;;33.58;35.52;102437.09;10302345;28;20049;-74
2022/07/20 16:47:46;;;;;;;11.38;7.18;;;;;;;33.57;35.61;102431.75;10327781;28;20121;-74
2022/07/20 16:52:47;;;;;;;14.02;6.78;;;;;;;33.64;35.37;102469.38;10311662;28;20136;-75
2022/07/20 16:57:49;;;;;;;18.10;7.25;;;;;;;33.52;35.49;102421.16;10316879;28;20526;-74
2022/07/20 17:02:50;;;;;;;16.25;6.90;;;;;;;33.26;35.89;102328.44;10324334;28;20053;-74
2022/07/20 17:07:52;;;;;;;16.13;8.25;;;;;;;33.17;35.59;102300.94;10299151;28;20088;-74
2022/07/20 17:12:54;;;;;;;11.57;5.82;;;;;;;33.13;35.79;102298.38;10317581;28;20567;-74
2022/07/20 17:17:56;;;;;;;13.63;9.07;;;;;;;33.07;35.99;102267.97;10298674;28;20099;-74
2022/07/20 17:22:57;;;;;;;15.07;6.90;;;;;;;33.05;36.17;102269.91;10304294;28;20066;-74
2022/07/20 17:27:59;;;;;;;13.68;7.40;;;;;;;32.85;36.09;102198.66;10309947;28;20038;-74
2022/07/20 17:33:00;;;;;;;14.35;7.85;;;;;;;32.59;36.50;102111.47;10306603;28;20092;-74
2022/07/20 17:38:02;;;;;;;13.93;7.50;;;;;;;32.64;36.49;102143.72;10309601;28;20121;-74
2022/07/20 17:43:04;;;;;;;14.20;7.43;;;;;;;32.31;36.82;102030.78;10307300;28;20066;-74
2022/07/20 17:48:10;;;;;;;17.83;7.80;;;;;;;31.72;37.01;101811.91;10373374;28;20030;-74
2022/07/20 17:53:14;;;;;;;11.55;7.13;;;;;;;31.27;37.25;101652.97;10375579;28;20422;-77
2022/07/20 17:58:16;;;;;;;14.93;7.22;;;;;;;30.90;37.33;101525.25;10369511;28;20073;-75
2022/07/20 18:03:21;;;;;;;12.98;6.03;;;;;;;30.45;37.77;101380.00;10369705;28;20066;-77
2022/07/20 18:08:42;;;;;;;16.13;6.30;;;;;;;30.21;37.88;101312.03;10305764;28;20035;-76
2022/07/20 18:13:44;;;;;;;13.15;6.50;;;;;;;29.87;38.47;101195.16;10306099;28;20074;-78
2022/07/20 18:18:46;;;;;;;12.18;6.38;;;;;;;29.71;38.34;101145.72;10310608;28;20043;-77
2022/07/20 18:23:49;;;;;;;13.93;6.13;;;;;;;29.55;38.73;101107.97;10300949;28;20861;-77
2022/07/20 18:28:50;;;;;;;17.80;7.82;;;;;;;29.42;39.04;101081.69;10310276;28;20043;-76
2022/07/20 18:33:52;;;;;;;15.82;6.93;;;;;;;29.26;39.28;101029.63;10310352;28;20057;-76
2022/07/20 18:38:55;;;;;;;15.55;6.55;;;;;;;28.98;39.58;100944.91;10383189;28;20141;-76
2022/07/20 18:43:57;;;;;;;13.63;7.25;;;;;;;28.80;39.63;100892.06;10339429;28;20040;-76
2022/07/20 18:48:59;;;;;;;12.43;6.63;;;;;;;28.63;40.34;100842.75;10404038;28;20127;-75
2022/07/20 18:54:01;;;;;;;15.90;7.90;;;;;;;28.50;40.46;100820.97;10305767;28;20059;-76
2022/07/20 18:59:03;;;;;;;13.07;7.32;;;;;;;28.37;40.58;100787.63;10310428;28;20407;-75
2022/07/20 19:04:05;;;;;;;17.35;7.45;;;;;;;28.09;41.14;100691.44;10331939;28;20444;-76
2022/07/20 19:09:07;;;;;;;17.10;8.18;;;;;;;27.92;41.36;100642.13;10308892;28;20534;-76
2022/07/20 19:14:09;;;;;;;17.50;8.77;;;;;;;27.79;41.34;100615.09;10314482;28;20046;-77
2022/07/20 19:19:12;;;;;;;13.15;7.50;;;;;;;27.67;41.84;100589.78;10375231;28;20085;-76
2022/07/20 19:24:14;;;;;;;13.13;7.95;;;;;;;27.56;42.15;100554.56;10370510;28;20871;-77
2022/07/20 19:29:18;;;;;;;14.40;7.32;;;;;;;27.32;42.10;100490.53;10305370;28;20039;-77
2022/07/20 19:34:19;;;;;;;14.43;7.43;;;;;;;27.19;42.57;100451.84;10328177;28;20069;-79
2022/07/20 19:39:21;;;;;;;13.82;7.50;;;;;;;26.99;42.74;100386.69;10329732;28;20065;-76
2022/07/20 19:44:23;;;;;;;19.83;7.57;;;;;;;26.79;43.03;100331.41;10310813;28;20046;-75
2022/07/20 19:49:25;;;;;;;15.07;7.22;;;;;;;26.77;43.36;100335.16;10379935;28;20038;-76
2022/07/20 19:54:27;;;;;;;12.52;7.22;;;;;;;26.55;43.38;100263.84;10312057;28;20042;-77
2022/07/20 19:59:30;;;;;;;16.55;7.15;;;;;;;26.17;43.62;100139.97;10322227;28;20343;-79
2022/07/20 20:04:32;;;;;;;12.43;6.97;;;;;;;25.90;44.13;100062.81;10338264;28;20071;-78
2022/07/20 20:09:34;;;;;;;17.05;7.97;;;;;;;25.55;44.55;99954.00;10314530;28;20042;-76
2022/07/20 20:14:37;;;;;;;15.48;7.90;;;;;;;25.19;44.84;99831.94;10315244;28;20050;-77
2022/07/20 20:19:39;;;;;;;18.70;7.38;;;;;;;24.97;45.70;99767.19;10312170;28;20068;-76
2022/07/20 20:24:41;;;;;;;13.07;7.03;;;;;;;24.56;45.97;99633.94;10302250;28;20046;-75
2022/07/20 20:29:42;;;;;;;18.10;6.90;;;;;;;24.29;46.29;99551.69;10387374;28;20532;-77
2022/07/20 20:34:44;;;;;;;13.05;6.22;;;;;;;24.12;46.68;99508.09;10314048;28;20081;-77
2022/07/20 20:39:46;;;;;;;13.23;6.68;;;;;;;23.97;47.15;99476.94;10305898;28;20038;-76
2022/07/20 20:44:48;;;;;;;16.58;7.00;;;;;;;23.85;47.59;99450.91;10321762;28;20479;-75
2022/07/20 20:49:49;;;;;;;14.90;6.47;;;;;;;23.75;47.97;99430.06;10310559;28;20041;-76
2022/07/20 20:54:51;;;;;;;15.80;6.22;;;;;;;23.70;48.32;99428.63;10378327;28;20132;-75
2022/07/20 20:59:53;;;;;;;13.57;7.35;;;;;;;23.57;48.53;99407.09;10307566;28;20042;-76
2022/07/20 21:04:54;;;;;;;22.73;7.07;;;;;;;23.56;48.94;99421.41;10325684;28;20046;-77
2022/07/20 21:09:56;;;;;;;15.15;6.72;;;;;;;23.52;49.51;99431.41;10376571;28;20485;-78
2022/07/20 21:14:58;;;;;;;14.93;6.70;;;;;;;23.44;50.03;99415.84;10326558;28;20042;-77
2022/07/20 21:20:00;;;;;;;16.38;6.63;;;;;;;23.42;50.29;99432.88;10317530;28;20034;-77
2022/07/20 21:25:02;;;;;;;14.07;6.38;;;;;;;23.42;50.74;99455.13;10319081;28;20047;-76
2022/07/20 21:30:06;;;;;;;14.20;6.22;;;;;;;23.38;50.93;99458.06;10312331;28;20051;-76
2022/07/20 21:35:08;;;;;;;15.02;5.55;;;;;;;23.44;51.31;99501.31;10301716;28;20078;-77
2022/07/20 21:40:11;;;;;;;13.18;6.20;;;;;;;23.39;51.71;99503.38;10302292;28;20061;-77
2022/07/20 21:45:13;;;;;;;17.85;6.40;;;;;;;23.37;52.09;99499.06;10378427;28;20054;-76
2022/07/20 21:50:15;;;;;;;11.20;5.60;;;;;;;23.21;52.38;99464.34;10306850;28;20039;-78
2022/07/20 21:55:16;;;;;;;12.38;5.72;;;;;;;23.21;52.62;99483.91;10378960;28;20514;-77
2022/07/20 22:00:18;;;;;;;13.93;5.70;;;;;;;23.13;53.04;99462.13;10304597;28;20499;-76
2022/07/20 22:05:21;;;;;;;13.52;5.68;;;;;;;22.99;53.16;99424.66;10360017;28;20130;-77
2022/07/20 22:10:23;;;;;;;10.77;4.53;;;;;;;22.85;53.55;99388.03;10310746;28;20077;-76
2022/07/20 22:15:25;;;;;;;14.55;5.15;;;;;;;22.74;53.70;99348.63;10326596;28;20099;-77
2022/07/20 22:20:30;;;;;;;11.40;4.50;;;;;;;22.66;53.97;99334.84;10316323;28;20472;-76
2022/07/20 22:25:32;;;;;;;18.17;5.03;;;;;;;22.57;54.28;99317.56;10384152;28;20062;-75
2022/07/20 22:30:40;;;;;;;8.93;4.78;;;;;;;22.51;54.32;99309.91;10325400;28;20091;-77
2022/07/20 22:35:45;;;;;;;12.85;4.90;;;;;;;22.42;54.82;99285.44;10332318;28;20068;-77
2022/07/20 22:40:47;;;;;;;12.55;4.75;;;;;;;22.43;54.95;99310.34;10314924;28;20073;-76
2022/07/20 22:45:48;;;;;;;12.57;4.97;;;;;;;22.35;55.31;99286.75;10376202;28;20049;-77
2022/07/20 22:50:50;;;;;;;17.45;4.50;;;;;;;22.35;55.60;99313.44;10377333;28;20051;-75
2022/07/20 22:55:51;;;;;;;13.38;4.35;;;;;;;22.33;55.89;99315.31;10314193;28;20546;-77
2022/07/20 23:00:59;;;;;;;13.27;4.95;;;;;;;22.36;56.00;99336.47;10316637;28;22220;-76
2022/07/20 23:06:01;;;;;;;12.43;4.50;;;;;;;22.31;56.16;99333.19;10377370;28;20087;-77